• Join FlightAware (Why Join?)
  • Login
  • US Flag 
12:20AM EDT


 

Airport Tracker/Info


-or-


 

Live Flight TrackerFlight Track Log ✈ N960DL ✈ 26-Apr-2013 ✈ KATL - KCLT

Flight Track Log - Related Links

Times and Time Zones

All times are in EDT time to prevent confusion due to time zone crossing. See the N960DL flight status page for this flight to view local times or setup timezone preferences in your user account.

Time Position Orientation Groundspeed Altitude Reporting Facility
EDT Latitude Longitude Course Direction KTS MPH feet Rate Location/Type
04:38PM 33.6333 -84.4000 64° Northeast 163 188 2,200  Level Atlanta TRACON
04:39PM 33.6333 -84.3167 90° East 244 281 4,100 2,520 Climbing Atlanta TRACON
04:40PM 33.6333 -84.2333 90° East 270 311 7,000 2,460 Climbing Atlanta TRACON
04:41PM 33.7035 -83.9537 101° East  Level FlightAware Approximate
04:42PM 33.6774 -83.7977 101° East  Level FlightAware Approximate
04:42PM 33.6378 -84.0489 88° East 327 376 11,200  Level Atlanta Center
04:43PM 33.6514 -83.6416 101° East  Level FlightAware Approximate
04:43PM 33.6439 -83.9239 87° East 351 404 12,300  Level Atlanta Center
04:44PM 33.7053 -83.4981 64° Northeast  Level FlightAware Approximate
04:44PM 33.6519 -83.7792 86° East 405 466 14,500  Level Atlanta Center
04:45PM 33.6661 -83.6294 83° East 442 509 16,700 2,040 Climbing Atlanta Center
04:46PM 33.7219 -83.4894 64° Northeast 458 527 18,600 1,980 Climbing Atlanta Center
04:47PM 33.7819 -83.3464 63° Northeast 458 527 20,700 2,100 Climbing Atlanta Center
04:48PM 33.8414 -83.2033 63° Northeast 469 540 22,800 1,800 Climbing Atlanta Center
04:49PM 33.8928 -83.0753 64° Northeast 469 540 24,400 1,080 Climbing Atlanta Center
04:50PM 33.9519 -82.9269 64° Northeast 476 548 25,000 300 Climbing Atlanta Center
04:51PM 34.0111 -82.7783 64° Northeast 486 559 25,000 -240 Level Atlanta Center
04:52PM 34.0869 -82.6442 56° Northeast 492 566 24,600 -840 Descending Atlanta Center
04:53PM 34.1606 -82.5150 55° Northeast 480 552 23,400 -1,260 Descending Atlanta Center
04:54PM 34.2339 -82.3881 55° Northeast 467 537 22,100 -720 Descending Atlanta Center
04:55PM 34.3114 -82.2608 54° Northeast 462 532 22,000 -780 Descending Atlanta Center
04:56PM 34.3828 -82.1383 55° Northeast 456 525 20,600 -2,100 Descending Atlanta Center
04:57PM 34.4558 -82.0158 54° Northeast 456 525 17,800 -2,400 Descending Atlanta Center
04:58PM 34.5269 -81.8981 54° Northeast 446 513 15,800 -2,100 Descending Atlanta Center
04:59PM 34.5917 -81.7856 55° Northeast 431 496 13,600 -2,160 Descending Atlanta Center
05:00PM 34.6506 -81.6906 53° Northeast 383 441 12,000 -1,500 Descending Atlanta Center
05:00PM 34.6686 -81.6597 55° Northeast 377 434 12,000  Level Atlanta Center
05:01PM 34.7131 -81.5825 55° Northeast 362 417 12,000  Level Atlanta Center
05:02PM 34.7800 -81.4897 49° Northeast 362 417 12,000  Level Atlanta Center
05:03PM 34.8550 -81.3886 48° Northeast 362 417 12,000 -60 Level Atlanta Center
05:04PM 34.9239 -81.2978 47° Northeast 362 417 11,900 -960 Descending Atlanta Center
05:05PM 34.9986 -81.1864 51° Northeast 353 406 10,000 -960 Descending Atlanta Center
05:06PM 35.0383 -81.1036 60° Northeast 355 409 10,000 -120 Level Atlanta Center
05:07PM 35.0861 -81.0081 59° Northeast 338 389 9,800 -540 Descending Atlanta Center
05:08PM 35.1278 -80.9228 59° Northeast 308 354 9,000 -600 Descending Atlanta Center
05:09PM 35.1758 -80.8422 54° Northeast 291 335 8,700 -1,140 Descending Atlanta Center
05:10PM 35.2383 -80.7611 47° Northeast 283 326 6,600 -1,860 Descending Atlanta Center
05:11PM 35.2983 -80.7356 19° North 247 284 4,700 -1,680 Descending Atlanta Center
05:12PM 35.3106 -80.8039 282° West 202 232 3,300 -1,440 Descending Atlanta Center